sensor_id;sensor_type;location;lat;lon;timestamp;pressure;altitude;pressure_sealevel;temperature;humidity
51468;BME280;37545;45.302;-122.946;2023-01-06T00:01:44;99766.75;;;12.61;98.79
51468;BME280;37545;45.302;-122.946;2023-01-06T00:04:13;99763.25;;;12.54;97.60
51468;BME280;37545;45.302;-122.946;2023-01-06T00:06:42;99780.53;;;12.51;95.24
51468;BME280;37545;45.302;-122.946;2023-01-06T00:09:12;99777.91;;;12.48;96.01
51468;BME280;37545;45.302;-122.946;2023-01-06T00:11:41;99785.59;;;12.34;94.89
51468;BME280;37545;45.302;-122.946;2023-01-06T00:14:10;99787.25;;;12.20;92.77
51468;BME280;37545;45.302;-122.946;2023-01-06T00:16:39;99791.44;;;12.04;93.00
51468;BME280;37545;45.302;-122.946;2023-01-06T00:19:10;99799.16;;;11.98;93.20
51468;BME280;37545;45.302;-122.946;2023-01-06T00:21:38;99805.13;;;11.87;92.47
51468;BME280;37545;45.302;-122.946;2023-01-06T00:24:09;99818.09;;;11.87;93.12
51468;BME280;37545;45.302;-122.946;2023-01-06T00:26:39;99828.41;;;11.86;92.93
51468;BME280;37545;45.302;-122.946;2023-01-06T00:29:09;99834.41;;;11.80;91.04
51468;BME280;37545;45.302;-122.946;2023-01-06T00:31:38;99839.56;;;11.79;91.89
51468;BME280;37545;45.302;-122.946;2023-01-06T00:34:06;99844.72;;;11.74;91.88
51468;BME280;37545;45.302;-122.946;2023-01-06T00:36:36;99858.47;;;11.70;93.19
51468;BME280;37545;45.302;-122.946;2023-01-06T00:39:05;99867.09;;;11.67;91.59
51468;BME280;37545;45.302;-122.946;2023-01-06T00:41:34;99875.69;;;11.62;93.52
51468;BME280;37545;45.302;-122.946;2023-01-06T00:44:21;99886.88;;;11.59;93.58
51468;BME280;37545;45.302;-122.946;2023-01-06T00:46:49;99895.53;;;11.60;93.71
51468;BME280;37545;45.302;-122.946;2023-01-06T00:49:18;99894.63;;;11.58;94.19
51468;BME280;37545;45.302;-122.946;2023-01-06T00:51:47;99898.88;;;11.51;94.62
51468;BME280;37545;45.302;-122.946;2023-01-06T00:54:16;99911.84;;;11.54;94.84
51468;BME280;37545;45.302;-122.946;2023-01-06T00:56:46;99916.97;;;11.49;95.01
51468;BME280;37545;45.302;-122.946;2023-01-06T00:59:16;99918.63;;;11.43;94.19
51468;BME280;37545;45.302;-122.946;2023-01-06T01:01:47;99925.59;;;11.45;95.33
51468;BME280;37545;45.302;-122.946;2023-01-06T01:04:16;99927.28;;;11.43;95.49
51468;BME280;37545;45.302;-122.946;2023-01-06T01:06:46;99941.91;;;11.40;95.93
51468;BME280;37545;45.302;-122.946;2023-01-06T01:09:17;99947.03;;;11.35;96.47
51468;BME280;37545;45.302;-122.946;2023-01-06T01:11:47;99948.72;;;11.31;96.85
51468;BME280;37545;45.302;-122.946;2023-01-06T01:14:33;99952.03;;;11.23;97.91
51468;BME280;37545;45.302;-122.946;2023-01-06T01:17:03;99968.47;;;11.25;98.62
51468;BME280;37545;45.302;-122.946;2023-01-06T01:19:32;99965.75;;;11.17;99.39
51468;BME280;37545;45.302;-122.946;2023-01-06T01:22:01;99982.22;;;11.21;100.00
51468;BME280;37545;45.302;-122.946;2023-01-06T01:24:30;99987.34;;;11.18;100.00
51468;BME280;37545;45.302;-122.946;2023-01-06T01:26:59;99998.56;;;11.17;100.00
51468;BME280;37545;45.302;-122.946;2023-01-06T01:29:27;100002.91;;;11.19;100.00
51468;BME280;37545;45.302;-122.946;2023-01-06T01:31:57;99999.41;;;11.16;100.00
51468;BME280;37545;45.302;-122.946;2023-01-06T01:34:27;100009.81;;;11.19;100.00
51468;BME280;37545;45.302;-122.946;2023-01-06T01:36:56;100023.59;;;11.18;100.00
51468;BME280;37545;45.302;-122.946;2023-01-06T01:39:26;100028.69;;;11.11;100.00
51468;BME280;37545;45.302;-122.946;2023-01-06T01:41:56;100030.41;;;11.13;100.00
51468;BME280;37545;45.302;-122.946;2023-01-06T01:44:54;100042.53;;;11.14;100.00
51468;BME280;37545;45.302;-122.946;2023-01-06T01:47:30;100046.81;;;11.11;100.00
51468;BME280;37545;45.302;-122.946;2023-01-06T01:50:06;100049.34;;;11.08;100.00
51468;BME280;37545;45.302;-122.946;2023-01-06T01:52:35;100054.50;;;11.08;100.00
51468;BME280;37545;45.302;-122.946;2023-01-06T01:55:06;100062.28;;;11.08;100.00
51468;BME280;37545;45.302;-122.946;2023-01-06T01:57:37;100075.28;;;11.11;100.00
51468;BME280;37545;45.302;-122.946;2023-01-06T02:00:09;100079.56;;;11.09;100.00
51468;BME280;37545;45.302;-122.946;2023-01-06T02:02:38;100084.69;;;11.05;100.00
51468;BME280;37545;45.302;-122.946;2023-01-06T02:05:10;100092.44;;;11.05;100.00
51468;BME280;37545;45.302;-122.946;2023-01-06T02:07:40;100089.78;;;11.00;100.00
51468;BME280;37545;45.302;-122.946;2023-01-06T02:10:12;100103.53;;;10.98;100.00
51468;BME280;37545;45.302;-122.946;2023-01-06T02:12:41;100108.69;;;10.96;100.00
51468;BME280;37545;45.302;-122.946;2023-01-06T02:15:18;100109.53;;;10.95;100.00
51468;BME280;37545;45.302;-122.946;2023-01-06T02:18:07;100121.59;;;10.93;100.00
51468;BME280;37545;45.302;-122.946;2023-01-06T02:20:51;100123.28;;;10.91;100.00
51468;BME280;37545;45.302;-122.946;2023-01-06T02:23:55;100128.38;;;10.88;100.00
51468;BME280;37545;45.302;-122.946;2023-01-06T02:32:59;100159.25;;;10.79;100.00
51468;BME280;37545;45.302;-122.946;2023-01-06T02:35:48;100160.88;;;10.74;100.00
51468;BME280;37545;45.302;-122.946;2023-01-06T02:38:29;100169.50;;;10.73;100.00
51468;BME280;37545;45.302;-122.946;2023-01-06T02:41:11;100178.13;;;10.73;100.00
51468;BME280;37545;45.302;-122.946;2023-01-06T02:43:51;100187.53;;;10.69;100.00
51468;BME280;37545;45.302;-122.946;2023-01-06T02:46:38;100190.13;;;10.69;100.00
51468;BME280;37545;45.302;-122.946;2023-01-06T02:49:18;100209.09;;;10.68;100.00
51468;BME280;37545;45.302;-122.946;2023-01-06T02:51:54;100209.03;;;10.65;100.00
51468;BME280;37545;45.302;-122.946;2023-01-06T02:54:29;100219.38;;;10.65;100.00
51468;BME280;37545;45.302;-122.946;2023-01-06T02:57:05;100222.00;;;10.67;100.00
51468;BME280;37545;45.302;-122.946;2023-01-06T02:59:42;100219.31;;;10.61;100.00
51468;BME280;37545;45.302;-122.946;2023-01-06T03:02:15;100224.38;;;10.56;100.00
51468;BME280;37545;45.302;-122.946;2023-01-06T03:04:48;100232.03;;;10.52;100.00
51468;BME280;37545;45.302;-122.946;2023-01-06T03:07:19;100243.31;;;10.55;100.00
51468;BME280;37545;45.302;-122.946;2023-01-06T03:09:52;100253.59;;;10.52;100.00
51468;BME280;37545;45.302;-122.946;2023-01-06T03:12:26;100259.53;;;10.48;100.00
51468;BME280;37545;45.302;-122.946;2023-01-06T03:14:56;100263.81;;;10.46;100.00
51468;BME280;37545;45.302;-122.946;2023-01-06T03:17:25;100261.16;;;10.43;100.00
51468;BME280;37545;45.302;-122.946;2023-01-06T03:19:55;100261.81;;;10.34;100.00
51468;BME280;37545;45.302;-122.946;2023-01-06T03:22:24;100281.66;;;10.35;100.00
51468;BME280;37545;45.302;-122.946;2023-01-06T03:24:54;100284.81;;;10.23;100.00
51468;BME280;37545;45.302;-122.946;2023-01-06T03:27:24;100289.97;;;10.22;100.00
51468;BME280;37545;45.302;-122.946;2023-01-06T03:29:54;100294.34;;;10.24;100.00
51468;BME280;37545;45.302;-122.946;2023-01-06T03:32:27;100294.34;;;10.24;100.00
51468;BME280;37545;45.302;-122.946;2023-01-06T03:35:16;100306.44;;;10.27;100.00
51468;BME280;37545;45.302;-122.946;2023-01-06T03:37:52;100311.56;;;10.24;100.00
51468;BME280;37545;45.302;-122.946;2023-01-06T03:40:30;100317.44;;;10.18;100.00
51468;BME280;37545;45.302;-122.946;2023-01-06T03:43:07;100326.06;;;10.19;100.00
51468;BME280;37545;45.302;-122.946;2023-01-06T03:48:32;100323.38;;;10.14;100.00
51468;BME280;37545;45.302;-122.946;2023-01-06T03:51:08;100343.94;;;10.08;100.00
51468;BME280;37545;45.302;-122.946;2023-01-06T03:53:45;100355.19;;;10.12;100.00
51468;BME280;37545;45.302;-122.946;2023-01-06T03:56:19;100361.34;;;10.15;100.00
51468;BME280;37545;45.302;-122.946;2023-01-06T03:58:53;100362.19;;;10.16;100.00
51468;BME280;37545;45.302;-122.946;2023-01-06T04:01:23;100368.25;;;10.16;100.00
51468;BME280;37545;45.302;-122.946;2023-01-06T04:03:54;100365.75;;;10.19;100.00
51468;BME280;37545;45.302;-122.946;2023-01-06T04:06:25;100371.78;;;10.20;100.00
51468;BME280;37545;45.302;-122.946;2023-01-06T04:08:53;100380.41;;;10.20;100.00
51468;BME280;37545;45.302;-122.946;2023-01-06T04:11:22;100382.00;;;10.15;100.00
51468;BME280;37545;45.302;-122.946;2023-01-06T04:14:08;100389.72;;;10.14;100.00
51468;BME280;37545;45.302;-122.946;2023-01-06T04:16:36;100390.53;;;10.11;100.00
51468;BME280;37545;45.302;-122.946;2023-01-06T04:19:05;100399.13;;;10.10;100.00
51468;BME280;37545;45.302;-122.946;2023-01-06T04:21:35;100410.34;;;10.11;100.00
51468;BME280;37545;45.302;-122.946;2023-01-06T04:24:05;100418.09;;;10.12;100.00
51468;BME280;37545;45.302;-122.946;2023-01-06T04:26:33;100420.69;;;10.12;100.00
51468;BME280;37545;45.302;-122.946;2023-01-06T04:29:02;100427.50;;;10.09;100.00
51468;BME280;37545;45.302;-122.946;2023-01-06T04:31:31;100437.06;;;10.11;100.00
51468;BME280;37545;45.302;-122.946;2023-01-06T04:33:59;100439.72;;;10.14;100.00
51468;BME280;37545;45.302;-122.946;2023-01-06T04:36:29;100444.06;;;10.15;100.00
51468;BME280;37545;45.302;-122.946;2023-01-06T04:38:59;100451.84;;;10.17;100.00
51468;BME280;37545;45.302;-122.946;2023-01-06T04:41:28;100463.03;;;10.16;100.00
51468;BME280;37545;45.302;-122.946;2023-01-06T04:43:57;100470.72;;;10.13;100.00
51468;BME280;37545;45.302;-122.946;2023-01-06T04:46:26;100467.22;;;10.11;100.00
51468;BME280;37545;45.302;-122.946;2023-01-06T04:48:55;100470.78;;;10.16;100.00
51468;BME280;37545;45.302;-122.946;2023-01-06T04:51:24;100479.47;;;10.18;100.00
51468;BME280;37545;45.302;-122.946;2023-01-06T04:53:52;100482.97;;;10.20;100.00
51468;BME280;37545;45.302;-122.946;2023-01-06T04:56:23;100495.09;;;10.22;100.00
51468;BME280;37545;45.302;-122.946;2023-01-06T04:58:53;100493.31;;;10.21;100.00
51468;BME280;37545;45.302;-122.946;2023-01-06T05:01:23;100501.88;;;10.19;100.00
51468;BME280;37545;45.302;-122.946;2023-01-06T05:03:52;100503.66;;;10.20;100.00
51468;BME280;37545;45.302;-122.946;2023-01-06T05:06:21;100503.53;;;10.17;100.00
51468;BME280;37545;45.302;-122.946;2023-01-06T05:08:49;100507.94;;;10.19;100.00
51468;BME280;37545;45.302;-122.946;2023-01-06T05:11:19;100512.22;;;10.19;100.00
51468;BME280;37545;45.302;-122.946;2023-01-06T05:13:50;100512.94;;;10.13;100.00
51468;BME280;37545;45.302;-122.946;2023-01-06T05:16:22;100521.41;;;10.07;100.00
51468;BME280;37545;45.302;-122.946;2023-01-06T05:18:52;100518.78;;;10.06;100.00
51468;BME280;37545;45.302;-122.946;2023-01-06T05:21:22;100519.59;;;10.05;100.00
51468;BME280;37545;45.302;-122.946;2023-01-06T05:23:51;100526.38;;;10.00;100.00
51468;BME280;37545;45.302;-122.946;2023-01-06T05:26:23;100528.03;;;9.98;100.00
51468;BME280;37545;45.302;-122.946;2023-01-06T05:28:54;100534.97;;;9.99;100.00
51468;BME280;37545;45.302;-122.946;2023-01-06T05:31:23;100532.19;;;9.93;100.00
51468;BME280;37545;45.302;-122.946;2023-01-06T05:33:51;100528.75;;;9.92;100.00
51468;BME280;37545;45.302;-122.946;2023-01-06T05:36:20;100539.94;;;9.93;100.00
51468;BME280;37545;45.302;-122.946;2023-01-06T05:38:52;100547.78;;;9.96;100.00
51468;BME280;37545;45.302;-122.946;2023-01-06T05:41:21;100547.66;;;9.91;100.00
51468;BME280;37545;45.302;-122.946;2023-01-06T05:43:50;100560.69;;;9.94;100.00
51468;BME280;37545;45.302;-122.946;2023-01-06T05:46:20;100565.88;;;9.96;100.00
51468;BME280;37545;45.302;-122.946;2023-01-06T05:48:49;100576.13;;;9.93;100.00
51468;BME280;37545;45.302;-122.946;2023-01-06T05:51:17;100578.78;;;9.94;100.00
51468;BME280;37545;45.302;-122.946;2023-01-06T05:53:47;100583.00;;;9.92;100.00
51468;BME280;37545;45.302;-122.946;2023-01-06T05:56:17;100591.38;;;9.83;100.00
51468;BME280;37545;45.302;-122.946;2023-01-06T05:58:48;100588.97;;;9.90;100.00
51468;BME280;37545;45.302;-122.946;2023-01-06T06:01:21;100594.09;;;9.88;100.00
51468;BME280;37545;45.302;-122.946;2023-01-06T06:03:51;100594.97;;;9.89;100.00
51468;BME280;37545;45.302;-122.946;2023-01-06T06:06:21;100589.72;;;9.85;100.00
51468;BME280;37545;45.302;-122.946;2023-01-06T06:08:50;100599.19;;;9.85;100.00
51468;BME280;37545;45.302;-122.946;2023-01-06T06:11:19;100606.78;;;9.80;100.00
51468;BME280;37545;45.302;-122.946;2023-01-06T06:13:49;100610.13;;;9.78;100.00
51468;BME280;37545;45.302;-122.946;2023-01-06T06:16:21;100610.13;;;9.78;100.00
51468;BME280;37545;45.302;-122.946;2023-01-06T06:18:50;100615.28;;;9.76;100.00
51468;BME280;37545;45.302;-122.946;2023-01-06T06:21:21;100617.81;;;9.75;100.00
51468;BME280;37545;45.302;-122.946;2023-01-06T06:23:51;100625.50;;;9.73;100.00
51468;BME280;37545;45.302;-122.946;2023-01-06T06:26:20;100638.53;;;9.76;100.00
51468;BME280;37545;45.302;-122.946;2023-01-06T06:28:50;100638.56;;;9.78;100.00
51468;BME280;37545;45.302;-122.946;2023-01-06T06:31:21;100635.94;;;9.76;100.00
51468;BME280;37545;45.302;-122.946;2023-01-06T06:33:51;100644.50;;;9.75;100.00
51468;BME280;37545;45.302;-122.946;2023-01-06T06:36:20;100653.88;;;9.72;100.00
51468;BME280;37545;45.302;-122.946;2023-01-06T06:38:50;100653.84;;;9.70;100.00
51468;BME280;37545;45.302;-122.946;2023-01-06T06:41:20;100663.16;;;9.65;100.00
51468;BME280;37545;45.302;-122.946;2023-01-06T06:43:49;100658.84;;;9.65;100.00
51468;BME280;37545;45.302;-122.946;2023-01-06T06:46:18;100663.97;;;9.64;100.00
51468;BME280;37545;45.302;-122.946;2023-01-06T06:48:49;100663.16;;;9.65;100.00
51468;BME280;37545;45.302;-122.946;2023-01-06T06:51:19;100670.19;;;9.69;100.00
51468;BME280;37545;45.302;-122.946;2023-01-06T06:53:55;100668.41;;;9.68;100.00
51468;BME280;37545;45.302;-122.946;2023-01-06T06:56:24;100681.47;;;9.73;100.00
51468;BME280;37545;45.302;-122.946;2023-01-06T06:58:52;100676.28;;;9.73;100.00
51468;BME280;37545;45.302;-122.946;2023-01-06T07:01:21;100682.25;;;9.70;100.00
51468;BME280;37545;45.302;-122.946;2023-01-06T07:03:51;100691.56;;;9.65;100.00
51468;BME280;37545;45.302;-122.946;2023-01-06T07:06:22;100704.44;;;9.63;100.00
51468;BME280;37545;45.302;-122.946;2023-01-06T07:08:51;100701.91;;;9.65;100.00
51468;BME280;37545;45.302;-122.946;2023-01-06T07:11:20;100716.63;;;9.68;100.00
51468;BME280;37545;45.302;-122.946;2023-01-06T07:13:49;100719.00;;;9.61;100.00
51468;BME280;37545;45.302;-122.946;2023-01-06T07:16:18;100716.47;;;9.63;100.00
51468;BME280;37545;45.302;-122.946;2023-01-06T07:18:48;100716.53;;;9.64;100.00
51468;BME280;37545;45.302;-122.946;2023-01-06T07:21:18;100721.69;;;9.64;100.00
51468;BME280;37545;45.302;-122.946;2023-01-06T07:23:47;100714.81;;;9.65;100.00
51468;BME280;37545;45.302;-122.946;2023-01-06T07:26:16;100725.16;;;9.65;100.00
51468;BME280;37545;45.302;-122.946;2023-01-06T07:28:44;100738.88;;;9.64;100.00
51468;BME280;37545;45.302;-122.946;2023-01-06T07:31:13;100747.47;;;9.63;100.00
51468;BME280;37545;45.302;-122.946;2023-01-06T07:33:42;100741.47;;;9.64;100.00
51468;BME280;37545;45.302;-122.946;2023-01-06T07:36:10;100748.44;;;9.67;100.00
51468;BME280;37545;45.302;-122.946;2023-01-06T07:38:40;100750.88;;;9.62;100.00
51468;BME280;37545;45.302;-122.946;2023-01-06T07:41:09;100756.09;;;9.63;100.00
51468;BME280;37545;45.302;-122.946;2023-01-06T07:43:38;100758.69;;;9.63;100.00
51468;BME280;37545;45.302;-122.946;2023-01-06T07:46:07;100743.75;;;9.55;100.00
51468;BME280;37545;45.302;-122.946;2023-01-06T07:48:35;100761.09;;;9.59;100.00
51468;BME280;37545;45.302;-122.946;2023-01-06T07:51:04;100762.88;;;9.60;100.00
51468;BME280;37545;45.302;-122.946;2023-01-06T07:53:34;100755.84;;;9.56;100.00
51468;BME280;37545;45.302;-122.946;2023-01-06T07:56:05;100762.97;;;9.63;100.00
51468;BME280;37545;45.302;-122.946;2023-01-06T07:58:33;100763.84;;;9.63;100.00
51468;BME280;37545;45.302;-122.946;2023-01-06T08:01:05;100766.50;;;9.65;100.00
51468;BME280;37545;45.302;-122.946;2023-01-06T08:03:34;100766.38;;;9.62;100.00
51468;BME280;37545;45.302;-122.946;2023-01-06T08:06:06;100781.88;;;9.62;100.00
51468;BME280;37545;45.302;-122.946;2023-01-06T08:08:36;100776.75;;;9.63;100.00
51468;BME280;37545;45.302;-122.946;2023-01-06T08:11:07;100785.38;;;9.64;100.00
51468;BME280;37545;45.302;-122.946;2023-01-06T08:13:37;100789.75;;;9.65;100.00
51468;BME280;37545;45.302;-122.946;2023-01-06T08:16:07;100791.47;;;9.66;100.00
51468;BME280;37545;45.302;-122.946;2023-01-06T08:18:36;100801.81;;;9.66;100.00
51468;BME280;37545;45.302;-122.946;2023-01-06T08:21:06;100792.34;;;9.67;100.00
51468;BME280;37545;45.302;-122.946;2023-01-06T08:23:36;100784.50;;;9.63;100.00
51468;BME280;37545;45.302;-122.946;2023-01-06T08:26:07;100802.44;;;9.59;100.00
51468;BME280;37545;45.302;-122.946;2023-01-06T08:28:36;100803.31;;;9.59;100.00
51468;BME280;37545;45.302;-122.946;2023-01-06T08:31:08;100808.38;;;9.56;100.00
51468;BME280;37545;45.302;-122.946;2023-01-06T08:33:37;100811.03;;;9.58;100.00
51468;BME280;37545;45.302;-122.946;2023-01-06T08:36:07;100807.44;;;9.54;100.00
51468;BME280;37545;45.302;-122.946;2023-01-06T08:38:36;100801.34;;;9.52;100.00
51468;BME280;37545;45.302;-122.946;2023-01-06T08:41:07;100808.16;;;9.50;100.00
51468;BME280;37545;45.302;-122.946;2023-01-06T08:43:36;100799.47;;;9.48;100.00
51468;BME280;37545;45.302;-122.946;2023-01-06T08:46:07;100808.06;;;9.47;100.00
51468;BME280;37545;45.302;-122.946;2023-01-06T08:48:38;100803.69;;;9.44;100.00
51468;BME280;37545;45.302;-122.946;2023-01-06T08:51:10;100806.16;;;9.41;100.00
51468;BME280;37545;45.302;-122.946;2023-01-06T08:53:39;100810.41;;;9.39;100.00
51468;BME280;37545;45.302;-122.946;2023-01-06T08:56:14;100813.78;;;9.38;100.00
51468;BME280;37545;45.302;-122.946;2023-01-06T08:58:43;100817.19;;;9.37;100.00
51468;BME280;37545;45.302;-122.946;2023-01-06T09:01:15;100812.91;;;9.38;100.00
51468;BME280;37545;45.302;-122.946;2023-01-06T09:03:44;100815.56;;;9.39;100.00
51468;BME280;37545;45.302;-122.946;2023-01-06T09:06:13;100818.16;;;9.41;100.00
51468;BME280;37545;45.302;-122.946;2023-01-06T09:08:41;100825.06;;;9.40;100.00
51468;BME280;37545;45.302;-122.946;2023-01-06T09:11:12;100835.31;;;9.39;100.00
51468;BME280;37545;45.302;-122.946;2023-01-06T09:13:41;100829.28;;;9.38;100.00
51468;BME280;37545;45.302;-122.946;2023-01-06T09:16:10;100832.69;;;9.37;100.00
51468;BME280;37545;45.302;-122.946;2023-01-06T09:18:39;100832.56;;;9.34;100.00
51468;BME280;37545;45.302;-122.946;2023-01-06T09:21:14;100839.34;;;9.31;100.00
51468;BME280;37545;45.302;-122.946;2023-01-06T09:23:42;100838.34;;;9.27;100.00
51468;BME280;37545;45.302;-122.946;2023-01-06T09:26:13;100846.09;;;9.27;100.00
51468;BME280;37545;45.302;-122.946;2023-01-06T09:28:42;100843.47;;;9.26;100.00
51468;BME280;37545;45.302;-122.946;2023-01-06T09:31:11;100845.06;;;9.22;100.00
51468;BME280;37545;45.302;-122.946;2023-01-06T09:33:40;100843.88;;;9.14;100.00
51468;BME280;37545;45.302;-122.946;2023-01-06T09:36:09;100854.19;;;9.14;100.00
51468;BME280;37545;45.302;-122.946;2023-01-06T09:38:37;100852.34;;;9.10;100.00
51468;BME280;37545;45.302;-122.946;2023-01-06T09:44:16;100865.97;;;9.06;100.00
51468;BME280;37545;45.302;-122.946;2023-01-06T09:46:49;100871.94;;;9.05;100.00
51468;BME280;37545;45.302;-122.946;2023-01-06T09:49:24;100876.28;;;9.06;100.00
51468;BME280;37545;45.302;-122.946;2023-01-06T09:51:59;100878.88;;;9.06;100.00
51468;BME280;37545;45.302;-122.946;2023-01-06T09:54:33;100885.75;;;9.05;100.00
51468;BME280;37545;45.302;-122.946;2023-01-06T09:57:12;100887.41;;;9.05;100.00
51468;BME280;37545;45.302;-122.946;2023-01-06T09:59:47;100883.09;;;9.04;100.00
51468;BME280;37545;45.302;-122.946;2023-01-06T10:02:29;100884.72;;;9.01;100.00
51468;BME280;37545;45.302;-122.946;2023-01-06T10:05:00;100889.78;;;8.98;100.00
51468;BME280;37545;45.302;-122.946;2023-01-06T10:07:33;100881.91;;;8.95;100.00
51468;BME280;37545;45.302;-122.946;2023-01-06T10:10:15;100884.50;;;8.95;100.00
51468;BME280;37545;45.302;-122.946;2023-01-06T10:12:56;100889.53;;;8.92;100.00
51468;BME280;37545;45.302;-122.946;2023-01-06T10:15:39;100890.22;;;8.87;100.00
51468;BME280;37545;45.302;-122.946;2023-01-06T10:18:20;100893.47;;;8.83;100.00
51468;BME280;37545;45.302;-122.946;2023-01-06T10:20:54;100902.69;;;8.76;100.00
51468;BME280;37545;45.302;-122.946;2023-01-06T10:23:56;100904.22;;;8.71;100.00
51468;BME280;37545;45.302;-122.946;2023-01-06T10:26:30;100918.59;;;8.66;100.00
51468;BME280;37545;45.302;-122.946;2023-01-06T10:29:03;100914.97;;;8.60;100.00
51468;BME280;37545;45.302;-122.946;2023-01-06T10:31:36;100924.22;;;8.55;100.00
51468;BME280;37545;45.302;-122.946;2023-01-06T10:34:14;100930.06;;;8.51;100.00
51468;BME280;37545;45.302;-122.946;2023-01-06T10:36:47;100940.13;;;8.45;100.00
51468;BME280;37545;45.302;-122.946;2023-01-06T10:39:20;100932.13;;;8.39;100.00
51468;BME280;37545;45.302;-122.946;2023-01-06T10:41:57;100940.53;;;8.35;100.00
51468;BME280;37545;45.302;-122.946;2023-01-06T10:44:41;100936.91;;;8.30;100.00
51468;BME280;37545;45.302;-122.946;2023-01-06T10:47:14;100936.72;;;8.25;100.00
51468;BME280;37545;45.302;-122.946;2023-01-06T10:49:45;100933.97;;;8.22;100.00
51468;BME280;37545;45.302;-122.946;2023-01-06T10:52:14;100935.50;;;8.17;100.00
51468;BME280;37545;45.302;-122.946;2023-01-06T10:54:43;100933.69;;;8.14;100.00
51468;BME280;37545;45.302;-122.946;2023-01-06T10:57:21;100931.75;;;8.09;100.00
51468;BME280;37545;45.302;-122.946;2023-01-06T11:00:13;100930.59;;;8.02;100.00
51468;BME280;37545;45.302;-122.946;2023-01-06T11:02:46;100926.78;;;7.94;100.00
51468;BME280;37545;45.302;-122.946;2023-01-06T11:05:16;100926.72;;;7.92;100.00
51468;BME280;37545;45.302;-122.946;2023-01-06T11:07:47;100931.66;;;7.88;100.00
51468;BME280;37545;45.302;-122.946;2023-01-06T11:10:30;100924.66;;;7.84;100.00
51468;BME280;37545;45.302;-122.946;2023-01-06T11:13:03;100923.44;;;7.75;100.00
51468;BME280;37545;45.302;-122.946;2023-01-06T11:15:38;100924.09;;;7.71;100.00
51468;BME280;37545;45.302;-122.946;2023-01-06T11:18:20;100913.56;;;7.65;100.00
51468;BME280;37545;45.302;-122.946;2023-01-06T11:21:09;100914.97;;;7.59;100.00
51468;BME280;37545;45.302;-122.946;2023-01-06T11:23:40;100919.00;;;7.53;100.00
51468;BME280;37545;45.302;-122.946;2023-01-06T11:26:17;100906.84;;;7.49;100.00
51468;BME280;37545;45.302;-122.946;2023-01-06T11:28:47;100909.97;;;7.42;100.00
51468;BME280;37545;45.302;-122.946;2023-01-06T11:31:19;100914.97;;;7.39;100.00
51468;BME280;37545;45.302;-122.946;2023-01-06T11:33:51;100918.06;;;7.32;100.00
51468;BME280;37545;45.302;-122.946;2023-01-06T11:36:23;100911.75;;;7.25;100.00
51468;BME280;37545;45.302;-122.946;2023-01-06T11:38:56;100907.97;;;7.17;100.00
51468;BME280;37545;45.302;-122.946;2023-01-06T11:41:29;100914.44;;;7.09;100.00
51468;BME280;37545;45.302;-122.946;2023-01-06T11:44:06;100912.53;;;7.05;100.00
51468;BME280;37545;45.302;-122.946;2023-01-06T11:46:37;100910.59;;;6.99;100.00
51468;BME280;37545;45.302;-122.946;2023-01-06T11:49:12;100914.78;;;6.97;100.00
51468;BME280;37545;45.302;-122.946;2023-01-06T11:51:47;100918.88;;;6.93;100.00
51468;BME280;37545;45.302;-122.946;2023-01-06T11:54:25;100914.47;;;6.91;100.00
51468;BME280;37545;45.302;-122.946;2023-01-06T11:57:17;100921.19;;;6.87;100.00
51468;BME280;37545;45.302;-122.946;2023-01-06T12:00:00;100915.97;;;6.86;100.00
51468;BME280;37545;45.302;-122.946;2023-01-06T12:02:34;100921.69;;;6.80;100.00
51468;BME280;37545;45.302;-122.946;2023-01-06T12:05:15;100917.22;;;6.76;100.00
51468;BME280;37545;45.302;-122.946;2023-01-06T12:07:49;100917.97;;;6.74;100.00
51468;BME280;37545;45.302;-122.946;2023-01-06T12:10:22;100921.25;;;6.71;100.00
51468;BME280;37545;45.302;-122.946;2023-01-06T12:12:52;100919.34;;;6.67;100.00
51468;BME280;37545;45.302;-122.946;2023-01-06T12:15:21;100909.81;;;6.64;100.00
51468;BME280;37545;45.302;-122.946;2023-01-06T12:17:56;100911.44;;;6.62;100.00
51468;BME280;37545;45.302;-122.946;2023-01-06T12:20:29;100903.50;;;6.58;100.00
51468;BME280;37545;45.302;-122.946;2023-01-06T12:23:01;100911.19;;;6.58;100.00
51468;BME280;37545;45.302;-122.946;2023-01-06T12:25:36;100911.13;;;6.56;100.00
51468;BME280;37545;45.302;-122.946;2023-01-06T12:28:08;100905.03;;;6.54;100.00
51468;BME280;37545;45.302;-122.946;2023-01-06T12:30:43;100909.16;;;6.50;100.00
51468;BME280;37545;45.302;-122.946;2023-01-06T12:33:17;100909.94;;;6.49;100.00
51468;BME280;37545;45.302;-122.946;2023-01-06T12:35:50;100891.72;;;6.45;100.00
51468;BME280;37545;45.302;-122.946;2023-01-06T12:38:28;100888.28;;;6.44;100.00
51468;BME280;37545;45.302;-122.946;2023-01-06T12:41:04;100894.06;;;6.40;100.00
51468;BME280;37545;45.302;-122.946;2023-01-06T12:43:38;100899.94;;;6.38;100.00
51468;BME280;37545;45.302;-122.946;2023-01-06T12:46:13;100893.50;;;6.28;100.00
51468;BME280;37545;45.302;-122.946;2023-01-06T12:48:45;100908.31;;;6.34;100.00
51468;BME280;37545;45.302;-122.946;2023-01-06T12:51:20;100903.78;;;6.28;100.00
51468;BME280;37545;45.302;-122.946;2023-01-06T12:53:54;100908.75;;;6.25;100.00
51468;BME280;37545;45.302;-122.946;2023-01-06T12:56:40;100913.72;;;6.22;100.00